Edt Yam — 5BWL3 — position and weather

sailwx.info

Track history (hours):
 
Tides and Currents Weather Stations Pressure Air Temp Water Temp Dewpoint Dewpoint Depression Visibility Wind Speed Wind Dir Waves Ship Positions

Edt Yam

Last reported at 2018-May-27 10:13 UTC. Time now 2018-May-27 21:33 UTC.
Position N 32°51' E 034°60'.

Length 76 m; draft 3.2 m.

Type: Dredging. MMSI: 212212000.

Date/timePositionNaut miles runAvg speedWind from/ knotsBaromVisibWave heightAir tempDewpointWater temp
2018-May-27 10:13N 32°51' E 034°60'2 8.2
2018-May-27 10:00N 32°52' E 034°58'5 9.4
2018-May-27 09:28N 32°56' E 034°54'3 5.8
2018-May-27 08:54N 32°58' E 034°51'2 5.7
2018-May-27 08:29N 32°56' E 034°53'4 8.1
2018-May-27 08:00N 32°54' E 034°56'5 0.3
2018-May-26 17:11N 32°50' E 035°01'2 9.3
2018-May-26 17:00N 32°51' E 034°59'5 9.4
2018-May-26 16:31N 32°54' E 034°55'5 9.3
2018-May-26 16:00N 32°58' E 034°51'0 0.4
2018-May-26 15:22N 32°58' E 034°51'3 7.5
2018-May-26 15:00N 32°56' E 034°53'4 8.1
2018-May-26 14:30N 32°53' E 034°57'4 0.2
2018-May-25 20:00N 32°50' E 035°01'4 9.2
2018-May-25 19:31N 32°53' E 034°57'5 9.2
2018-May-25 19:01N 32°56' E 034°53'2 4.4
2018-May-25 18:30N 32°58' E 034°51'4 7.8
2018-May-25 17:59N 32°55' E 034°55'4 8.6
2018-May-25 17:28N 32°52' E 034°58'3 0.2
2018-May-25 00:20N 32°50' E 035°01'3 9.4
2018-May-25 00:00N 32°53' E 034°58'4 8.4
2018-May-24 23:29N 32°55' E 034°55'4 8.0
2018-May-24 23:01N 32°58' E 034°51'0 0.6
2018-May-24 22:31N 32°58' E 034°51'9 0.3
2018-May-23 19:57N 32°52' E 034°59'4 9.3
2018-May-23 19:30N 32°55' E 034°55'5 9.2
2018-May-23 19:00N 32°58' E 034°51'0 0.3
2018-May-23 18:30N 32°58' E 034°51'3 5.1
2018-May-23 18:00N 32°56' E 034°53'4 8.4
2018-May-23 17:30N 32°53' E 034°57'4 0.2
2018-May-22 22:52N 32°50' E 035°01'3 9.2
2018-May-22 22:30N 32°53' E 034°58'5 9.1
2018-May-22 21:56N 32°56' E 034°53'3 5.0
2018-May-22 21:24N 32°58' E 034°51'0 0.1
2018-May-22 20:59N 32°58' E 034°51'4 6.8
2018-May-22 20:25N 32°55' E 034°54'4 9.2
2018-May-22 20:00N 32°53' E 034°58'1 0.1
2018-May-22 04:46N 32°52' E 034°58'2 9.1
2018-May-22 04:30N 32°54' E 034°56'5 9.2
2018-May-22 04:01N 32°57' E 034°53'2 3.5
2018-May-22 03:31N 32°58' E 034°51'2 3.3
2018-May-22 03:00N 32°57' E 034°52'4 8.8
2018-May-22 02:30N 32°54' E 034°56'7 0.4
2018-May-21 10:34N 32°49' E 035°02'1 1.6
2018-May-21 09:51N 32°50' E 035°01'3 9.3
2018-May-21 09:30N 32°53' E 034°58'5 9.2
2018-May-21 09:00N 32°56' E 034°54'4 7.1
2018-May-21 08:31N 32°58' E 034°51'0 0.3
2018-May-21 07:58N 32°58' E 034°51'4 8.2
2018-May-21 07:26N 32°55' E 034°55'4 8.5
2018-May-21 07:00N 32°53' E 034°58'3 0.3
2018-May-20 21:32N 32°50' E 035°01'110.0
2018-May-20 21:24N 32°51' E 034°60'3 8.9
2018-May-20 21:01N 32°53' E 034°56'5 9.4
2018-May-20 20:31N 32°57' E 034°53'2 3.6
2018-May-20 20:00N 32°58' E 034°51'3 6.8
2018-May-20 19:30N 32°56' E 034°54'4 8.6
2018-May-20 19:00N 32°53' E 034°58'4 0.4
2018-May-20 09:19N 32°50' E 035°01'3 9.4
2018-May-20 09:00N 32°52' E 034°58'5 9.5
2018-May-20 08:30N 32°56' E 034°54'4 6.5
2018-May-20 07:57N 32°58' E 034°51'4 8.2
2018-May-20 07:31N 32°56' E 034°54'4 8.6
2018-May-20 07:00N 32°53' E 034°58'3 0.5
2018-May-19 23:45N 32°50' E 035°01'2 7.1
2018-May-19 23:28N 32°51' E 034°59'4 8.9
2018-May-19 23:01N 32°54' E 034°55'4 8.9
2018-May-19 22:30N 32°58' E 034°52'1 1.4
2018-May-19 22:00N 32°58' E 034°51'3 6.7
2018-May-19 21:30N 32°56' E 034°54'4 8.6
2018-May-19 20:59N 32°53' E 034°58'2 0.3
2018-May-19 12:32N 32°51' E 034°60'1 9.6
2018-May-19 12:28N 32°51' E 034°59'4 9.4
2018-May-19 12:00N 32°52' E 034°54'5 9.3
2018-May-19 11:30N 32°53' E 034°49'5 9.5
2018-May-19 11:00N 32°54' E 034°43'5 9.4
2018-May-19 10:30N 32°56' E 034°38'1 2.4
2018-May-19 09:56N 32°56' E 034°36'4 8.2
2018-May-19 09:24N 32°55' E 034°41'3 8.2
2018-May-19 09:00N 32°54' E 034°45'4 8.2
2018-May-19 08:29N 32°53' E 034°50'4 8.4
2018-May-19 08:00N 32°53' E 034°55'6 1.3
2018-May-19 03:26N 32°50' E 035°01'4 9.1
2018-May-19 03:00N 32°53' E 034°57'5 9.2
2018-May-19 02:30N 32°56' E 034°53'3 5.2
2018-May-19 01:59N 32°58' E 034°51'5 5.6
2018-May-19 01:03N 32°54' E 034°56'0 5.5
2018-May-19 00:59N 32°54' E 034°56'5 0.7
2018-May-18 17:01N 32°50' E 035°01'0 3.5
2018-May-18 16:57N 32°51' E 035°00'4 8.7
2018-May-18 16:31N 32°53' E 034°57'4 1.9
2018-May-18 14:19N 32°56' E 034°53'3 8.3
2018-May-18 14:00N 32°54' E 034°56'5 0.6
2018-May-18 06:37N 32°51' E 034°60'1 9.0
2018-May-18 06:30N 32°52' E 034°59'4 7.9
2018-May-18 06:00N 32°54' E 034°55'4 8.2
2018-May-18 05:30N 32°57' E 034°52'1 2.4
2018-May-18 05:00N 32°58' E 034°51'3 6.9
2018-May-18 04:30N 32°56' E 034°54'4 8.7
2018-May-18 04:00N 32°53' E 034°58'2 0.4
2018-May-17 21:03N 32°51' E 034°60'0 9.2
2018-May-17 21:00N 32°51' E 034°59'4 9.1
2018-May-17 20:31N 32°54' E 034°55'5 9.2
2018-May-17 20:00N 32°57' E 034°52'1 1.5
2018-May-17 19:30N 32°57' E 034°52'4 8.4
2018-May-17 18:59N 32°54' E 034°56'5 0.9
2018-May-17 13:13N 32°51' E 035°01'2 9.1
2018-May-17 13:01N 32°52' E 034°59'5 9.1
2018-May-17 12:30N 32°55' E 034°55'4 8.7
2018-May-17 12:00N 32°58' E 034°51'0 0.1
2018-May-17 11:30N 32°58' E 034°51'3 6.8
2018-May-17 11:00N 32°56' E 034°54'4 8.2
2018-May-17 10:28N 32°53' E 034°58'  
Track history (hours):
 
Tides and Currents Weather Stations Pressure Air Temp Water Temp Dewpoint Dewpoint Depression Visibility Wind Speed Wind Dir Waves Ship Positions

Edt Yam

Last reported at 2018-May-27 10:13 UTC. Time now 2018-May-27 21:33 UTC.
Position N 32°51' E 034°60'.

Length 76 m; draft 3.2 m.

Type: Dredging. MMSI: 212212000.

Date/timePositionNaut miles runAvg speedWind from/ knotsBaromVisibWave heightAir tempDewpointWater temp
2018-May-27 10:13N 32°51' E 034°60'2 8.2
2018-May-27 10:00N 32°52' E 034°58'5 9.4
2018-May-27 09:28N 32°56' E 034°54'3 5.8
2018-May-27 08:54N 32°58' E 034°51'2 5.7
2018-May-27 08:29N 32°56' E 034°53'4 8.1
2018-May-27 08:00N 32°54' E 034°56'5 0.3
2018-May-26 17:11N 32°50' E 035°01'2 9.3
2018-May-26 17:00N 32°51' E 034°59'5 9.4
2018-May-26 16:31N 32°54' E 034°55'5 9.3
2018-May-26 16:00N 32°58' E 034°51'0 0.4
2018-May-26 15:22N 32°58' E 034°51'3 7.5
2018-May-26 15:00N 32°56' E 034°53'4 8.1
2018-May-26 14:30N 32°53' E 034°57'4 0.2
2018-May-25 20:00N 32°50' E 035°01'4 9.2
2018-May-25 19:31N 32°53' E 034°57'5 9.2
2018-May-25 19:01N 32°56' E 034°53'2 4.4
2018-May-25 18:30N 32°58' E 034°51'4 7.8
2018-May-25 17:59N 32°55' E 034°55'4 8.6
2018-May-25 17:28N 32°52' E 034°58'3 0.2
2018-May-25 00:20N 32°50' E 035°01'3 9.4
2018-May-25 00:00N 32°53' E 034°58'4 8.4
2018-May-24 23:29N 32°55' E 034°55'4 8.0
2018-May-24 23:01N 32°58' E 034°51'0 0.6
2018-May-24 22:31N 32°58' E 034°51'9 0.3
2018-May-23 19:57N 32°52' E 034°59'4 9.3
2018-May-23 19:30N 32°55' E 034°55'5 9.2
2018-May-23 19:00N 32°58' E 034°51'0 0.3
2018-May-23 18:30N 32°58' E 034°51'3 5.1
2018-May-23 18:00N 32°56' E 034°53'4 8.4
2018-May-23 17:30N 32°53' E 034°57'4 0.2
2018-May-22 22:52N 32°50' E 035°01'3 9.2
2018-May-22 22:30N 32°53' E 034°58'5 9.1
2018-May-22 21:56N 32°56' E 034°53'3 5.0
2018-May-22 21:24N 32°58' E 034°51'0 0.1
2018-May-22 20:59N 32°58' E 034°51'4 6.8
2018-May-22 20:25N 32°55' E 034°54'4 9.2
2018-May-22 20:00N 32°53' E 034°58'1 0.1
2018-May-22 04:46N 32°52' E 034°58'2 9.1
2018-May-22 04:30N 32°54' E 034°56'5 9.2
2018-May-22 04:01N 32°57' E 034°53'2 3.5
2018-May-22 03:31N 32°58' E 034°51'2 3.3
2018-May-22 03:00N 32°57' E 034°52'4 8.8
2018-May-22 02:30N 32°54' E 034°56'7 0.4
2018-May-21 10:34N 32°49' E 035°02'1 1.6
2018-May-21 09:51N 32°50' E 035°01'3 9.3
2018-May-21 09:30N 32°53' E 034°58'5 9.2
2018-May-21 09:00N 32°56' E 034°54'4 7.1
2018-May-21 08:31N 32°58' E 034°51'0 0.3
2018-May-21 07:58N 32°58' E 034°51'4 8.2
2018-May-21 07:26N 32°55' E 034°55'4 8.5
2018-May-21 07:00N 32°53' E 034°58'3 0.3
2018-May-20 21:32N 32°50' E 035°01'110.0
2018-May-20 21:24N 32°51' E 034°60'3 8.9
2018-May-20 21:01N 32°53' E 034°56'5 9.4
2018-May-20 20:31N 32°57' E 034°53'2 3.6
2018-May-20 20:00N 32°58' E 034°51'3 6.8
2018-May-20 19:30N 32°56' E 034°54'4 8.6
2018-May-20 19:00N 32°53' E 034°58'4 0.4
2018-May-20 09:19N 32°50' E 035°01'3 9.4
2018-May-20 09:00N 32°52' E 034°58'5 9.5
2018-May-20 08:30N 32°56' E 034°54'4 6.5
2018-May-20 07:57N 32°58' E 034°51'4 8.2
2018-May-20 07:31N 32°56' E 034°54'4 8.6
2018-May-20 07:00N 32°53' E 034°58'3 0.5
2018-May-19 23:45N 32°50' E 035°01'2 7.1
2018-May-19 23:28N 32°51' E 034°59'4 8.9
2018-May-19 23:01N 32°54' E 034°55'4 8.9
2018-May-19 22:30N 32°58' E 034°52'1 1.4
2018-May-19 22:00N 32°58' E 034°51'3 6.7
2018-May-19 21:30N 32°56' E 034°54'4 8.6
2018-May-19 20:59N 32°53' E 034°58'2 0.3
2018-May-19 12:32N 32°51' E 034°60'1 9.6
2018-May-19 12:28N 32°51' E 034°59'4 9.4
2018-May-19 12:00N 32°52' E 034°54'5 9.3
2018-May-19 11:30N 32°53' E 034°49'5 9.5
2018-May-19 11:00N 32°54' E 034°43'5 9.4
2018-May-19 10:30N 32°56' E 034°38'1 2.4
2018-May-19 09:56N 32°56' E 034°36'4 8.2
2018-May-19 09:24N 32°55' E 034°41'3 8.2
2018-May-19 09:00N 32°54' E 034°45'4 8.2
2018-May-19 08:29N 32°53' E 034°50'4 8.4
2018-May-19 08:00N 32°53' E 034°55'6 1.3
2018-May-19 03:26N 32°50' E 035°01'4 9.1
2018-May-19 03:00N 32°53' E 034°57'5 9.2
2018-May-19 02:30N 32°56' E 034°53'3 5.2
2018-May-19 01:59N 32°58' E 034°51'5 5.6
2018-May-19 01:03N 32°54' E 034°56'0 5.5
2018-May-19 00:59N 32°54' E 034°56'5 0.7
2018-May-18 17:01N 32°50' E 035°01'0 3.5
2018-May-18 16:57N 32°51' E 035°00'4 8.7
2018-May-18 16:31N 32°53' E 034°57'4 1.9
2018-May-18 14:19N 32°56' E 034°53'3 8.3
2018-May-18 14:00N 32°54' E 034°56'5 0.6
2018-May-18 06:37N 32°51' E 034°60'1 9.0
2018-May-18 06:30N 32°52' E 034°59'4 7.9
2018-May-18 06:00N 32°54' E 034°55'4 8.2
2018-May-18 05:30N 32°57' E 034°52'1 2.4
2018-May-18 05:00N 32°58' E 034°51'3 6.9
2018-May-18 04:30N 32°56' E 034°54'4 8.7
2018-May-18 04:00N 32°53' E 034°58'2 0.4
2018-May-17 21:03N 32°51' E 034°60'0 9.2
2018-May-17 21:00N 32°51' E 034°59'4 9.1
2018-May-17 20:31N 32°54' E 034°55'5 9.2
2018-May-17 20:00N 32°57' E 034°52'1 1.5
2018-May-17 19:30N 32°57' E 034°52'4 8.4
2018-May-17 18:59N 32°54' E 034°56'5 0.9
2018-May-17 13:13N 32°51' E 035°01'2 9.1
2018-May-17 13:01N 32°52' E 034°59'5 9.1
2018-May-17 12:30N 32°55' E 034°55'4 8.7
2018-May-17 12:00N 32°58' E 034°51'0 0.1
2018-May-17 11:30N 32°58' E 034°51'3 6.8
2018-May-17 11:00N 32°56' E 034°54'4 8.2
2018-May-17 10:28N 32°53' E 034°58'  

Dump ship's entire track history